Time;durP1;ratioP1;P1;durP2;ratioP2;P2;SDS_P1;SDS_P2;PMS_P1;PMS_P2;Temp;Humidity;BMP_temperature;BMP_pressure;BME280_temperature;BME280_humidity;BME280_pressure;Samples;Min_cycle;Max_cycle;Signal;HPM_P1;HPM_P2
2023/07/12 00:00:27;;;;;;;2.42;2.20;;;;;;;18.77;100.00;100674.34;1284352;23;20016;-47
2023/07/12 00:01:01;;;;;;;2.50;1.75;;;;;;;18.91;100.00;100674.59;1284467;23;20023;-48
2023/07/12 00:01:33;;;;;;;4.45;1.27;;;;;;;18.68;100.00;100666.00;1286594;23;20031;-50
2023/07/12 00:02:05;;;;;;;1.90;1.10;;;;;;;18.63;100.00;100668.72;1277505;23;20024;-50
2023/07/12 00:02:36;;;;;;;4.43;2.00;;;;;;;18.37;100.00;100661.75;1279937;23;20013;-49
2023/07/12 00:03:08;;;;;;;7.25;1.90;;;;;;;18.19;100.00;100660.41;1277775;23;20100;-49
2023/07/12 00:03:40;;;;;;;1.55;1.45;;;;;;;18.12;100.00;100659.88;1280580;23;20020;-47
2023/07/12 00:04:12;;;;;;;4.25;1.98;;;;;;;18.52;100.00;100659.00;1284446;23;20087;-49
2023/07/12 00:04:43;;;;;;;2.22;1.20;;;;;;;18.54;100.00;100654.94;1285930;23;20023;-49
2023/07/12 00:05:16;;;;;;;4.53;2.10;;;;;;;18.52;100.00;100656.28;1286419;23;20096;-49
2023/07/12 00:05:48;;;;;;;3.53;1.67;;;;;;;18.67;100.00;100659.00;1286316;23;20023;-50
2023/07/12 00:06:23;;;;;;;4.70;2.17;;;;;;;18.55;100.00;100655.75;1286133;23;20143;-50
2023/07/12 00:06:55;;;;;;;1.75;1.40;;;;;;;18.35;100.00;100658.47;1279922;23;20013;-49
2023/07/12 00:07:27;;;;;;;3.63;1.38;;;;;;;18.62;100.00;100667.09;1279380;23;20408;-48
2023/07/12 00:07:59;;;;;;;2.17;1.98;;;;;;;18.55;100.00;100666.53;1279774;23;20465;-48
2023/07/12 00:08:32;;;;;;;5.38;1.42;;;;;;;18.68;100.00;100665.19;1278836;23;20028;-51
2023/07/12 00:09:05;;;;;;;3.40;1.70;;;;;;;18.59;100.00;100664.91;1286338;23;20126;-47
2023/07/12 00:09:37;;;;;;;2.00;1.50;;;;;;;18.70;100.00;100671.94;1286738;23;20435;-48
2023/07/12 00:10:21;;;;;;;5.00;1.45;;;;;;;18.47;100.00;100672.50;1286518;23;20092;-48
2023/07/12 00:10:55;;;;;;;4.70;1.65;;;;;;;18.65;100.00;100671.97;1286451;23;20095;-49
2023/07/12 00:11:26;;;;;;;2.90;1.35;;;;;;;18.14;100.00;100672.00;1286620;23;20066;-50
2023/07/12 00:11:58;;;;;;;2.17;1.27;;;;;;;18.48;100.00;100676.81;1286372;23;20032;-49
2023/07/12 00:12:29;;;;;;;2.85;2.00;;;;;;;18.63;100.00;100679.53;1284350;23;20356;-51
2023/07/12 00:13:02;;;;;;;3.20;2.00;;;;;;;18.67;100.00;100679.78;1284198;23;20020;-47
2023/07/12 00:13:33;;;;;;;2.55;1.50;;;;;;;18.54;100.00;100681.91;1286618;23;20013;-48
2023/07/12 00:14:05;;;;;;;2.72;1.75;;;;;;;18.57;100.00;100680.56;1286622;23;20017;-48
2023/07/12 00:14:37;;;;;;;2.75;1.75;;;;;;;18.66;100.00;100672.75;1284909;23;20020;-42
2023/07/12 00:15:11;;;;;;;1.63;1.52;;;;;;;18.79;100.00;100677.56;1285408;23;20091;-49
2023/07/12 00:15:44;;;;;;;2.55;2.05;;;;;;;18.71;100.00;100675.44;1284289;23;20482;-48
2023/07/12 00:16:27;;;;;;;6.82;2.13;;;;;;;18.33;100.00;100677.63;1286183;23;20008;-48
2023/07/12 00:16:58;;;;;;;2.17;1.77;;;;;;;18.63;100.00;100679.53;1286453;23;20344;-50
2023/07/12 00:17:30;;;;;;;2.45;1.70;;;;;;;18.85;100.00;100676.47;1286178;23;20013;-47
2023/07/12 00:18:02;;;;;;;2.80;1.33;;;;;;;18.84;100.00;100675.66;1286517;23;20012;-47
2023/07/12 00:18:34;;;;;;;1.40;1.30;;;;;;;18.78;100.00;100671.38;1283735;23;20013;-50
2023/07/12 00:19:06;;;;;;;3.33;2.00;;;;;;;18.92;100.00;100670.81;1284375;23;20016;-48
2023/07/12 00:19:38;;;;;;;1.80;1.63;;;;;;;18.96;100.00;100667.28;1286479;23;20013;-49
2023/07/12 00:20:16;;;;;;;2.08;1.33;;;;;;;18.82;100.00;100669.72;1286114;23;20016;-49
2023/07/12 00:20:49;;;;;;;1.75;1.40;;;;;;;18.71;100.00;100668.16;1286466;23;20040;-48
2023/07/12 00:21:24;;;;;;;2.20;1.40;;;;;;;18.74;100.00;100664.91;1286574;23;20024;-48
2023/07/12 00:21:55;;;;;;;5.40;1.90;;;;;;;18.44;100.00;100662.25;1286319;23;20098;-48
2023/07/12 00:22:27;;;;;;;2.15;1.55;;;;;;;18.56;100.00;100659.25;1286483;23;20020;-51
2023/07/12 00:22:59;;;;;;;4.82;1.90;;;;;;;18.46;100.00;100660.09;1284352;23;20016;-48
2023/07/12 00:23:31;;;;;;;1.85;1.38;;;;;;;18.48;100.00;100660.63;1286530;23;20036;-48
2023/07/12 00:24:09;;;;;;;2.17;1.45;;;;;;;18.76;100.00;100665.44;1287447;23;20460;-42
2023/07/12 00:24:44;;;;;;;8.10;1.85;;;;;;;18.79;100.00;100662.19;1286451;23;20068;-41
2023/07/12 00:25:15;;;;;;;6.45;1.60;;;;;;;18.89;100.00;100664.03;1287068;23;20042;-49
2023/07/12 00:25:48;;;;;;;6.38;2.05;;;;;;;18.97;100.00;100678.88;1284991;23;20040;-42
2023/07/12 00:26:26;;;;;;;2.83;1.77;;;;;;;18.78;100.00;100665.97;1286395;23;20016;-41
2023/07/12 00:27:00;;;;;;;2.35;2.05;;;;;;;18.86;100.00;100663.78;1278036;23;20028;-41
2023/07/12 00:27:32;;;;;;;2.65;2.05;;;;;;;18.81;100.00;100665.41;1279400;23;20092;-42
2023/07/12 00:28:15;;;;;;;3.25;1.65;;;;;;;18.44;100.00;100665.75;1271588;23;20036;-42
2023/07/12 00:28:47;;;;;;;1.63;1.38;;;;;;;18.56;100.00;100662.75;1273433;23;20013;-42
2023/07/12 00:29:18;;;;;;;5.32;1.77;;;;;;;18.44;100.00;100656.88;1271776;23;20028;-42
2023/07/12 00:29:50;;;;;;;3.40;1.92;;;;;;;18.29;100.00;100657.69;1273788;23;20018;-42
2023/07/12 00:30:24;;;;;;;2.45;1.35;;;;;;;18.45;100.00;100650.38;1268214;23;20028;-41
2023/07/12 00:30:56;;;;;;;3.50;1.50;;;;;;;18.62;100.00;100650.91;1272554;23;20057;-42
2023/07/12 00:31:28;;;;;;;1.50;1.20;;;;;;;18.57;100.00;100642.78;1279473;23;20016;-41
2023/07/12 00:32:00;;;;;;;1.55;1.45;;;;;;;18.80;100.00;100644.91;1278446;23;20468;-42
2023/07/12 00:32:34;;;;;;;1.67;1.27;;;;;;;18.81;100.00;100649.22;1277785;23;20028;-42
2023/07/12 00:33:09;;;;;;;3.95;1.65;;;;;;;18.59;100.00;100645.22;1277710;23;20020;-42
2023/07/12 00:33:40;;;;;;;2.15;1.75;;;;;;;18.62;100.00;100645.50;1277828;23;20025;-42
2023/07/12 00:34:12;;;;;;;1.70;1.60;;;;;;;18.63;100.00;100647.16;1279460;23;20013;-41
2023/07/12 00:34:44;;;;;;;2.75;1.80;;;;;;;18.50;100.00;100650.38;1280277;23;20412;-42
2023/07/12 00:35:19;;;;;;;6.78;1.63;;;;;;;18.63;100.00;100651.72;1286155;23;20405;-42
2023/07/12 00:35:50;;;;;;;4.63;1.90;;;;;;;18.80;100.00;100652.19;1271319;23;20025;-41
2023/07/12 00:36:25;;;;;;;2.00;1.80;;;;;;;18.83;100.00;100657.84;1259418;23;20109;-42
2023/07/12 00:36:57;;;;;;;4.68;2.15;;;;;;;18.65;100.00;100655.78;1259581;23;20097;-42
2023/07/12 00:37:28;;;;;;;1.60;1.50;;;;;;;18.64;100.00;100654.16;1263774;23;20015;-42
2023/07/12 00:38:00;;;;;;;1.60;1.50;;;;;;;18.59;100.00;100656.81;1276456;23;20017;-42
2023/07/12 00:38:33;;;;;;;1.63;1.33;;;;;;;18.29;100.00;100652.28;1277665;23;20384;-42
2023/07/12 00:39:05;;;;;;;2.53;1.83;;;;;;;18.63;100.00;100660.63;1279649;23;20107;-42
2023/07/12 00:39:38;;;;;;;2.33;1.83;;;;;;;18.27;100.00;100659.84;1278104;23;20033;-42
2023/07/12 00:40:42;;;;;;;2.58;1.67;;;;;;;18.32;100.00;100661.72;1277901;23;20522;-41
2023/07/12 00:41:18;;;;;;;4.22;1.70;;;;;;;18.18;100.00;100659.59;1272430;23;20024;-41
2023/07/12 00:41:49;;;;;;;2.85;2.00;;;;;;;18.35;100.00;100661.16;1275281;23;20033;-41
2023/07/12 00:42:28;;;;;;;2.05;1.52;;;;;;;18.33;100.00;100653.34;1280009;23;20016;-42
2023/07/12 00:43:29;;;;;;;2.67;1.67;;;;;;;18.55;100.00;100653.06;1277940;23;20021;-42
2023/07/12 00:44:21;;;;;;;2.50;1.50;;;;;;;18.42;100.00;100650.94;1275083;23;20024;-41
2023/07/12 00:44:57;;;;;;;3.80;1.92;;;;;;;18.40;100.00;100655.78;1273680;23;20344;-42
2023/07/12 00:45:29;;;;;;;1.50;1.40;;;;;;;18.23;100.00;100658.78;1259552;23;20015;-42
2023/07/12 00:46:05;;;;;;;3.78;1.67;;;;;;;18.41;100.00;100654.72;1260892;23;20018;-42
2023/07/12 00:46:52;;;;;;;1.95;1.52;;;;;;;18.45;100.00;100655.78;1263336;23;20136;-42
2023/07/12 00:47:24;;;;;;;2.65;1.95;;;;;;;18.48;100.00;100653.34;1277091;23;20365;-42
2023/07/12 00:47:57;;;;;;;1.63;1.50;;;;;;;18.45;100.00;100655.78;1283181;23;20012;-42
2023/07/12 00:48:29;;;;;;;5.47;1.85;;;;;;;18.47;100.00;100650.91;1286519;23;20333;-41
2023/07/12 00:49:01;;;;;;;5.88;1.98;;;;;;;18.47;100.00;100648.22;1284196;23;20463;-42
2023/07/12 00:49:32;;;;;;;2.90;1.65;;;;;;;18.61;100.00;100646.56;1286492;23;20016;-42
2023/07/12 00:50:20;;;;;;;2.08;1.83;;;;;;;18.79;100.00;100647.88;1283737;23;20432;-41
2023/07/12 00:50:52;;;;;;;4.00;1.70;;;;;;;18.63;100.00;100652.53;1286540;23;20015;-41
2023/07/12 00:51:45;;;;;;;2.70;1.45;;;;;;;18.69;100.00;100651.44;1277811;23;20017;-41
2023/07/12 00:52:19;;;;;;;3.70;1.60;;;;;;;18.61;100.00;100660.03;1278034;23;20444;-42
2023/07/12 00:52:51;;;;;;;3.65;1.77;;;;;;;18.61;100.00;100661.94;1271417;23;20024;-41
2023/07/12 00:53:23;;;;;;;1.88;1.70;;;;;;;18.58;100.00;100666.00;1279056;23;20095;-41
2023/07/12 00:53:55;;;;;;;1.90;1.60;;;;;;;18.73;100.00;100660.59;1279759;23;20048;-41
2023/07/12 00:54:46;;;;;;;2.22;1.83;;;;;;;18.49;100.00;100656.84;1280650;23;20113;-42
2023/07/12 00:55:56;;;;;;;1.45;1.35;;;;;;;18.12;100.00;100657.97;1286695;23;20020;-41
2023/07/12 00:56:28;;;;;;;2.35;1.73;;;;;;;17.79;100.00;100658.50;1277721;23;20024;-41
2023/07/12 00:56:59;;;;;;;2.30;2.10;;;;;;;17.90;100.00;100658.25;1277710;23;20013;-41
2023/07/12 00:57:32;;;;;;;3.38;1.88;;;;;;;17.95;100.00;100652.03;1277196;23;20547;-41
2023/07/12 00:58:06;;;;;;;3.40;1.77;;;;;;;18.12;100.00;100660.69;1272367;23;20067;-41
2023/07/12 00:58:42;;;;;;;5.85;1.90;;;;;;;18.27;100.00;100653.63;1277502;23;20020;-41
2023/07/12 00:59:31;;;;;;;2.17;1.75;;;;;;;18.21;100.00;100667.13;1279921;23;20009;-41
2023/07/12 01:00:12;;;;;;;2.65;1.52;;;;;;;18.35;100.00;100666.56;1271446;23;20131;-41
2023/07/12 01:00:44;;;;;;;2.25;1.77;;;;;;;18.42;100.00;100667.13;1277712;23;20027;-42
2023/07/12 01:01:17;;;;;;;1.88;1.48;;;;;;;17.98;100.00;100656.91;1271678;23;20022;-41
2023/07/12 01:01:51;;;;;;;2.42;1.95;;;;;;;18.07;100.00;100676.03;1273870;23;20020;-41
2023/07/12 01:02:23;;;;;;;3.38;1.90;;;;;;;17.72;100.00;100668.72;1265386;23;20474;-41
2023/07/12 01:02:57;;;;;;;3.85;1.85;;;;;;;17.92;100.00;100668.75;1260735;23;20018;-51
2023/07/12 01:03:32;;;;;;;2.00;1.90;;;;;;;17.83;100.00;100675.78;1267781;23;20010;-51
2023/07/12 01:04:07;;;;;;;2.30;2.10;;;;;;;17.60;100.00;100671.66;1276543;23;20393;-51
2023/07/12 01:04:43;;;;;;;4.43;2.45;;;;;;;17.69;100.00;100670.06;1286461;23;20032;-42
2023/07/12 01:05:15;;;;;;;3.70;1.60;;;;;;;17.75;100.00;100673.59;1277464;23;20459;-42
2023/07/12 01:05:47;;;;;;;2.30;1.50;;;;;;;17.80;100.00;100670.88;1269047;23;20373;-41
2023/07/12 01:06:20;;;;;;;3.50;1.92;;;;;;;17.93;100.00;100673.06;1265403;23;20021;-42
2023/07/12 01:06:51;;;;;;;2.75;2.20;;;;;;;17.89;100.00;100669.31;1263686;23;20406;-42
2023/07/12 01:07:24;;;;;;;1.48;1.38;;;;;;;17.82;100.00;100676.84;1272873;23;20092;-42
2023/07/12 01:07:55;;;;;;;3.08;1.88;;;;;;;17.95;100.00;100678.19;1270955;23;20024;-42
2023/07/12 01:08:29;;;;;;;2.15;1.65;;;;;;;17.89;100.00;100686.28;1273156;23;20067;-41
2023/07/12 01:09:06;;;;;;;3.33;2.17;;;;;;;18.26;100.00;100687.06;1278891;23;20516;-42
2023/07/12 01:09:38;;;;;;;2.97;2.08;;;;;;;18.34;100.00;100687.34;1285764;23;20028;-42
2023/07/12 01:10:12;;;;;;;2.70;1.65;;;;;;;18.33;100.00;100688.41;1277444;23;20115;-41
2023/07/12 01:10:44;;;;;;;2.17;1.50;;;;;;;18.42;100.00;100700.28;1277330;23;20364;-41
2023/07/12 01:11:17;;;;;;;3.70;1.80;;;;;;;18.45;100.00;100693.53;1279539;23;20023;-42
2023/07/12 01:11:49;;;;;;;4.18;1.83;;;;;;;18.58;100.00;100698.34;1280423;23;20016;-48
2023/07/12 01:12:21;;;;;;;2.17;2.03;;;;;;;18.53;100.00;100701.06;1286393;23;20026;-48
2023/07/12 01:12:52;;;;;;;2.35;1.60;;;;;;;18.66;100.00;100697.84;1284341;23;20563;-48
2023/07/12 01:13:24;;;;;;;2.65;2.35;;;;;;;18.61;100.00;100684.31;1286402;23;20024;-48
2023/07/12 01:13:55;;;;;;;3.72;1.55;;;;;;;18.42;100.00;100691.38;1284268;23;20016;-50
2023/07/12 01:14:27;;;;;;;2.63;2.40;;;;;;;18.20;100.00;100692.47;1277859;23;20024;-48
2023/07/12 01:15:01;;;;;;;2.08;1.83;;;;;;;18.31;100.00;100678.97;1277108;23;20096;-47
2023/07/12 01:15:34;;;;;;;2.40;2.20;;;;;;;18.26;100.00;100687.06;1279948;23;20029;-47
2023/07/12 01:16:06;;;;;;;2.00;1.60;;;;;;;18.44;100.00;100687.34;1277685;23;20028;-48
2023/07/12 01:16:39;;;;;;;3.53;3.28;;;;;;;18.46;100.00;100689.75;1274718;23;20013;-47
2023/07/12 01:17:11;;;;;;;2.20;1.90;;;;;;;18.53;100.00;100685.69;1271080;23;20041;-48
2023/07/12 01:17:42;;;;;;;3.63;1.90;;;;;;;18.63;100.00;100686.81;1274410;23;20014;-49
2023/07/12 01:18:14;;;;;;;4.00;2.15;;;;;;;18.35;100.00;100688.97;1266999;23;20014;-49
2023/07/12 01:18:48;;;;;;;2.85;1.80;;;;;;;18.34;100.00;100691.91;1266533;23;20024;-48
2023/07/12 01:19:20;;;;;;;5.00;2.03;;;;;;;18.40;100.00;100680.88;1271591;23;20381;-48
2023/07/12 01:19:52;;;;;;;1.95;1.77;;;;;;;18.33;100.00;100684.91;1273593;23;20021;-48
2023/07/12 01:20:24;;;;;;;4.80;1.75;;;;;;;18.43;100.00;100687.59;1274277;23;20013;-48
2023/07/12 01:21:12;;;;;;;3.05;2.15;;;;;;;18.54;100.00;100691.91;1272055;23;20120;-48
2023/07/12 01:21:47;;;;;;;3.97;2.22;;;;;;;18.49;100.00;100700.00;1280048;23;20009;-47
2023/07/12 01:22:19;;;;;;;13.77;2.75;;;;;;;18.44;100.00;100702.72;1279727;23;20031;-50
2023/07/12 01:22:52;;;;;;;3.80;2.40;;;;;;;18.57;100.00;100696.75;1284277;23;20107;-48
2023/07/12 01:23:23;;;;;;;2.72;2.20;;;;;;;18.56;100.00;100700.53;1285550;23;20020;-47
2023/07/12 01:23:55;;;;;;;2.10;1.90;;;;;;;18.44;100.00;100702.72;1277941;23;20068;-48
2023/07/12 01:24:30;;;;;;;6.25;1.55;;;;;;;18.43;100.00;100701.09;1279910;23;20104;-48
2023/07/12 01:25:02;;;;;;;4.05;2.08;;;;;;;18.31;100.00;100692.47;1279701;23;20029;-42
2023/07/12 01:25:36;;;;;;;5.93;1.98;;;;;;;18.41;100.00;100687.06;1272944;23;20795;-42
2023/07/12 01:26:22;;;;;;;2.45;2.10;;;;;;;18.50;100.00;100680.03;1271500;23;20024;-41
2023/07/12 01:26:58;;;;;;;2.22;1.92;;;;;;;18.47;100.00;100683.28;1273702;23;20274;-42
2023/07/12 01:27:33;;;;;;;1.90;1.80;;;;;;;18.44;100.00;100681.13;1278926;23;20333;-41
2023/07/12 01:28:05;;;;;;;4.13;2.00;;;;;;;18.36;100.00;100684.41;1283001;23;20088;-41
2023/07/12 01:28:37;;;;;;;2.53;1.80;;;;;;;18.55;100.00;100688.13;1286383;23;20017;-42
2023/07/12 01:29:09;;;;;;;2.97;1.90;;;;;;;18.39;100.00;100678.44;1279707;23;20031;-42
2023/07/12 01:29:41;;;;;;;3.13;2.00;;;;;;;18.57;100.00;100685.94;1271477;23;20445;-47
2023/07/12 01:30:18;;;;;;;2.50;1.83;;;;;;;18.43;100.00;100688.41;1265602;23;20378;-50
2023/07/12 01:30:50;;;;;;;4.47;2.25;;;;;;;18.46;100.00;100692.47;1269765;23;20450;-48
2023/07/12 01:31:24;;;;;;;2.88;2.13;;;;;;;18.47;100.00;100696.78;1267409;23;20026;-48
2023/07/12 01:31:59;;;;;;;3.65;1.65;;;;;;;18.42;100.00;100694.09;1274190;23;20014;-48
2023/07/12 01:32:32;;;;;;;2.35;1.90;;;;;;;18.33;100.00;100693.00;1271640;23;20014;-51
2023/07/12 01:33:04;;;;;;;2.85;2.00;;;;;;;18.32;100.00;100700.28;1281529;23;20017;-48
2023/07/12 01:33:36;;;;;;;5.80;2.35;;;;;;;18.33;100.00;100701.91;1283923;23;20486;-48
2023/07/12 01:34:08;;;;;;;2.83;2.10;;;;;;;18.31;100.00;100697.84;1278809;23;20017;-48
2023/07/12 01:34:40;;;;;;;2.33;1.63;;;;;;;18.19;100.00;100704.34;1285091;23;20120;-48
2023/07/12 01:35:31;;;;;;;2.40;1.95;;;;;;;18.19;100.00;100704.34;1277740;23;20077;-42
2023/07/12 01:36:03;;;;;;;7.10;1.83;;;;;;;18.21;100.00;100710.28;1284802;23;20017;-42
2023/07/12 01:36:35;;;;;;;2.90;2.15;;;;;;;18.15;100.00;100716.75;1286183;23;20016;-41
2023/07/12 01:37:07;;;;;;;3.20;1.88;;;;;;;18.15;100.00;100721.34;1277010;23;20099;-41
2023/07/12 01:37:38;;;;;;;1.67;1.58;;;;;;;18.15;100.00;100721.34;1279624;23;20047;-41
2023/07/12 01:38:10;;;;;;;2.83;2.10;;;;;;;18.01;100.00;100726.44;1277908;23;20341;-42
2023/07/12 01:38:42;;;;;;;4.10;2.20;;;;;;;18.09;100.00;100728.63;1278487;23;20364;-42
2023/07/12 01:39:13;;;;;;;4.78;1.67;;;;;;;18.10;100.00;100730.22;1277376;23;20020;-41
2023/07/12 01:39:45;;;;;;;6.05;1.90;;;;;;;17.90;100.00;100735.59;1279689;23;20092;-41
2023/07/12 01:40:17;;;;;;;3.38;1.88;;;;;;;17.99;100.00;100725.88;1277976;23;20024;-41
2023/07/12 01:40:48;;;;;;;3.05;1.75;;;;;;;17.79;100.00;100729.34;1278348;23;20020;-41
2023/07/12 01:41:20;;;;;;;5.05;1.73;;;;;;;17.92;100.00;100734.25;1286931;23;20020;-41
2023/07/12 01:41:54;;;;;;;3.50;1.67;;;;;;;17.97;100.00;100730.75;1284740;23;20146;-41
2023/07/12 01:42:26;;;;;;;2.42;1.40;;;;;;;17.97;100.00;100733.44;1284587;23;20016;-41
2023/07/12 01:42:57;;;;;;;3.03;1.75;;;;;;;17.98;100.00;100726.97;1278133;23;20021;-41
2023/07/12 01:43:30;;;;;;;4.32;2.00;;;;;;;18.01;100.00;100731.00;1280231;23;20092;-41
2023/07/12 01:44:02;;;;;;;3.15;1.90;;;;;;;17.84;100.00;100725.88;1280086;23;20013;-41
2023/07/12 01:44:34;;;;;;;2.85;1.77;;;;;;;17.83;100.00;100721.56;1279167;23;20029;-41
2023/07/12 01:45:06;;;;;;;5.72;1.90;;;;;;;17.88;100.00;100716.19;1286757;23;20139;-41
2023/07/12 01:45:38;;;;;;;5.07;2.30;;;;;;;17.77;100.00;100715.34;1286229;23;20086;-41
2023/07/12 01:46:13;;;;;;;1.80;1.50;;;;;;;17.82;100.00;100718.06;1286662;23;20023;-46
2023/07/12 01:46:44;;;;;;;3.35;2.22;;;;;;;17.90;100.00;100714.03;1288351;23;20012;-41
2023/07/12 01:47:16;;;;;;;3.10;1.80;;;;;;;17.84;100.00;100720.50;1286487;23;20022;-41
2023/07/12 01:47:48;;;;;;;4.72;1.92;;;;;;;17.83;100.00;100718.88;1284686;23;20106;-41
2023/07/12 01:48:20;;;;;;;4.30;1.63;;;;;;;17.79;100.00;100728.53;1277999;23;20021;-41
2023/07/12 01:48:52;;;;;;;2.78;1.77;;;;;;;17.84;100.00;100725.88;1278249;23;20013;-41
2023/07/12 01:49:23;;;;;;;4.15;1.88;;;;;;;17.92;100.00;100717.25;1279655;23;20017;-41
2023/07/12 01:49:55;;;;;;;3.35;2.00;;;;;;;17.75;100.00;100727.47;1280954;23;20013;-41
2023/07/12 01:50:26;;;;;;;4.03;2.80;;;;;;;17.89;100.00;100717.81;1286978;23;20017;-41
2023/07/12 01:51:00;;;;;;;6.35;2.35;;;;;;;17.79;100.00;100733.94;1285102;23;20013;-41
2023/07/12 01:51:32;;;;;;;8.20;1.88;;;;;;;17.76;100.00;100723.69;1280640;23;20039;-47
2023/07/12 01:52:04;;;;;;;3.65;1.80;;;;;;;17.48;100.00;100733.81;1281236;23;20071;-49
2023/07/12 01:52:36;;;;;;;4.38;2.00;;;;;;;17.57;100.00;100728.75;1280088;23;20013;-47
2023/07/12 01:53:08;;;;;;;3.45;1.98;;;;;;;17.73;100.00;100735.00;1281966;23;20337;-45
2023/07/12 01:53:40;;;;;;;2.75;1.88;;;;;;;17.71;100.00;100726.38;1287047;23;20013;-48
2023/07/12 01:54:12;;;;;;;10.52;2.08;;;;;;;17.82;100.00;100736.94;1286495;23;20071;-49
2023/07/12 01:54:44;;;;;;;6.35;1.80;;;;;;;17.82;100.00;100730.75;1286875;23;20016;-48
2023/07/12 01:55:15;;;;;;;1.77;1.40;;;;;;;17.68;100.00;100732.31;1284171;23;20023;-47
2023/07/12 01:55:47;;;;;;;2.03;1.60;;;;;;;17.56;100.00;100727.94;1286528;23;20009;-47
2023/07/12 01:56:19;;;;;;;2.05;1.48;;;;;;;17.43;100.00;100733.81;1277879;23;20099;-49
2023/07/12 01:56:51;;;;;;;4.88;2.22;;;;;;;17.68;100.00;100729.63;1277908;23;20078;-48
2023/07/12 01:57:22;;;;;;;2.70;1.83;;;;;;;17.70;100.00;100732.84;1277908;23;20017;-48
2023/07/12 01:57:54;;;;;;;5.18;2.40;;;;;;;17.77;100.00;100731.50;1279957;23;20020;-47
2023/07/12 01:58:29;;;;;;;2.85;1.90;;;;;;;17.70;100.00;100740.94;1272382;23;20044;-48
2023/07/12 01:59:01;;;;;;;2.58;1.83;;;;;;;17.71;100.00;100742.53;1272916;23;20044;-47
2023/07/12 01:59:32;;;;;;;6.15;2.03;;;;;;;17.41;100.00;100738.66;1277721;23;20143;-50
2023/07/12 02:00:05;;;;;;;3.95;1.92;;;;;;;17.55;100.00;100739.78;1280247;23;20013;-48
2023/07/12 02:00:48;;;;;;;4.72;1.60;;;;;;;17.63;100.00;100741.16;1278005;23;20017;-47
2023/07/12 02:01:20;;;;;;;4.20;1.90;;;;;;;17.62;100.00;100744.94;1283252;23;20021;-47
2023/07/12 02:01:54;;;;;;;3.88;1.83;;;;;;;17.60;100.00;100741.69;1286901;23;20124;-47
2023/07/12 02:02:28;;;;;;;4.15;2.20;;;;;;;17.44;100.00;100737.31;1277854;23;20024;-46
2023/07/12 02:03:02;;;;;;;4.78;1.58;;;;;;;17.58;100.00;100733.88;1271802;23;20013;-48
2023/07/12 02:03:34;;;;;;;3.53;2.38;;;;;;;17.65;100.00;100738.19;1273876;23;20009;-48
2023/07/12 02:04:06;;;;;;;3.50;2.08;;;;;;;17.50;100.00;100731.69;1275766;23;20014;-47
2023/07/12 02:04:39;;;;;;;11.07;4.70;;;;;;;17.59;100.00;100727.41;1278742;23;20025;-50
2023/07/12 02:05:11;;;;;;;5.63;2.10;;;;;;;17.65;100.00;100727.41;1277919;23;20013;-47
2023/07/12 02:05:43;;;;;;;4.35;2.45;;;;;;;17.64;100.00;100723.09;1279878;23;20084;-41
2023/07/12 02:06:14;;;;;;;2.13;1.90;;;;;;;17.63;100.00;100730.38;1278052;23;20070;-41
2023/07/12 02:06:46;;;;;;;7.55;2.00;;;;;;;17.61;100.00;100722.56;1279973;23;20017;-41
2023/07/12 02:07:18;;;;;;;4.95;2.10;;;;;;;17.60;100.00;100712.88;1280066;23;20021;-41
2023/07/12 02:07:52;;;;;;;2.45;2.22;;;;;;;17.57;100.00;100716.09;1278642;23;20491;-41
2023/07/12 02:08:24;;;;;;;4.65;2.10;;;;;;;17.63;100.00;100708.03;1286574;23;20091;-47
2023/07/12 02:08:55;;;;;;;4.00;2.25;;;;;;;17.52;100.00;100707.97;1277736;23;20334;-48
2023/07/12 02:09:34;;;;;;;6.75;2.17;;;;;;;17.58;100.00;100701.56;1277834;23;20051;-48
2023/07/12 02:10:10;;;;;;;4.28;2.40;;;;;;;17.53;100.00;100704.25;1272745;23;20021;-47
2023/07/12 02:10:44;;;;;;;6.60;2.15;;;;;;;17.67;100.00;100703.72;1275469;23;20479;-41
2023/07/12 02:11:16;;;;;;;4.15;2.30;;;;;;;17.57;100.00;100710.72;1271616;23;20017;-41
2023/07/12 02:11:47;;;;;;;4.32;2.63;;;;;;;17.55;100.00;100715.56;1271944;23;20398;-41
2023/07/12 02:12:19;;;;;;;2.92;2.10;;;;;;;17.65;100.00;100717.47;1271744;23;20014;-41
2023/07/12 02:12:51;;;;;;;6.28;1.92;;;;;;;17.67;100.00;100725.28;1273716;23;20100;-41
2023/07/12 02:13:23;;;;;;;5.07;2.15;;;;;;;17.66;100.00;100734.44;1274114;23;20088;-48
2023/07/12 02:13:55;;;;;;;5.38;2.28;;;;;;;17.53;100.00;100731.19;1260305;23;20015;-48
2023/07/12 02:14:27;;;;;;;8.77;2.92;;;;;;;17.61;100.00;100733.34;1260074;23;20125;-48
2023/07/12 02:14:58;;;;;;;5.15;1.80;;;;;;;17.70;100.00;100714.00;1261836;23;20014;-48
2023/07/12 02:15:30;;;;;;;8.02;2.85;;;;;;;17.56;100.00;100709.09;1262285;23;20041;-50
2023/07/12 02:16:02;;;;;;;8.60;2.40;;;;;;;17.60;100.00;100698.59;1269054;23;20504;-47
2023/07/12 02:16:33;;;;;;;3.58;1.90;;;;;;;17.65;100.00;100687.00;1280406;23;20012;-47
2023/07/12 02:17:05;;;;;;;1.77;1.67;;;;;;;17.69;100.00;100677.34;1278319;23;20017;-47
2023/07/12 02:17:37;;;;;;;2.92;1.77;;;;;;;17.56;100.00;100682.16;1277728;23;20017;-47
2023/07/12 02:18:12;;;;;;;5.00;1.75;;;;;;;17.60;100.00;100688.63;1280168;23;20326;-47
2023/07/12 02:18:46;;;;;;;3.70;1.83;;;;;;;17.72;100.00;100687.59;1271108;23;20017;-49
2023/07/12 02:19:18;;;;;;;3.88;2.67;;;;;;;17.61;100.00;100692.94;1265729;23;20018;-48
2023/07/12 02:19:50;;;;;;;7.72;3.10;;;;;;;17.46;100.00;100692.88;1267259;23;20036;-48
2023/07/12 02:20:22;;;;;;;5.70;2.30;;;;;;;17.52;100.00;100697.22;1260499;23;20047;-48
2023/07/12 02:20:54;;;;;;;2.63;2.08;;;;;;;17.35;100.00;100696.63;1268484;23;20022;-47
2023/07/12 02:21:25;;;;;;;5.07;3.03;;;;;;;17.49;100.00;100705.00;1271754;23;20017;-41
2023/07/12 02:21:57;;;;;;;4.93;2.25;;;;;;;17.50;100.00;100696.66;1274844;23;20017;-41
2023/07/12 02:22:30;;;;;;;3.40;1.85;;;;;;;16.79;100.00;100704.47;1271875;23;20174;-41
2023/07/12 02:23:20;;;;;;;4.05;1.73;;;;;;;16.82;100.00;100701.25;1271896;23;20032;-41
2023/07/12 02:23:52;;;;;;;4.30;1.85;;;;;;;17.08;100.00;100707.56;1274078;23;20029;-47
2023/07/12 02:24:24;;;;;;;4.72;2.58;;;;;;;17.25;100.00;100701.97;1264515;23;20096;-47
2023/07/12 02:24:56;;;;;;;7.88;1.85;;;;;;;17.32;100.00;100707.94;1267694;23;20014;-47
2023/07/12 02:25:28;;;;;;;3.20;2.25;;;;;;;17.35;100.00;100707.41;1267852;23;20532;-47
2023/07/12 02:25:59;;;;;;;5.53;1.88;;;;;;;17.40;100.00;100712.00;1268874;23;20066;-47
2023/07/12 02:26:34;;;;;;;2.55;2.35;;;;;;;17.53;100.00;100709.63;1278435;23;20024;-43
2023/07/12 02:27:06;;;;;;;4.22;2.25;;;;;;;17.58;100.00;100711.53;1281724;23;20040;-42
2023/07/12 02:27:46;;;;;;;5.43;2.00;;;;;;;17.43;100.00;100714.16;1278717;23;20013;-49
2023/07/12 02:28:18;;;;;;;2.38;2.08;;;;;;;17.33;100.00;100717.63;1278173;23;20028;-47
2023/07/12 02:28:49;;;;;;;6.30;2.25;;;;;;;17.12;100.00;100718.63;1280538;23;20044;-47
2023/07/12 02:29:21;;;;;;;3.47;1.80;;;;;;;16.95;100.00;100713.41;1271814;23;20017;-48
2023/07/12 02:29:53;;;;;;;4.60;1.70;;;;;;;17.41;100.00;100717.13;1265699;23;20065;-48
2023/07/12 02:30:26;;;;;;;2.17;1.70;;;;;;;17.31;100.00;100722.47;1265935;23;20022;-47
2023/07/12 02:31:19;;;;;;;3.47;2.20;;;;;;;17.55;100.00;100718.25;1261096;23;20465;-47
2023/07/12 02:31:54;;;;;;;2.95;2.60;;;;;;;17.52;100.00;100724.13;1273309;23;20018;-41
2023/07/12 02:32:27;;;;;;;4.70;2.05;;;;;;;17.55;100.00;100730.91;1265501;23;20026;-47
2023/07/12 02:32:59;;;;;;;3.53;1.92;;;;;;;17.23;100.00;100714.88;1273051;23;20013;-41
2023/07/12 02:33:30;;;;;;;7.40;1.98;;;;;;;17.48;100.00;100723.06;1271957;23;20044;-41
2023/07/12 02:34:02;;;;;;;3.65;2.20;;;;;;;17.61;100.00;100717.19;1274981;23;20020;-48
2023/07/12 02:34:34;;;;;;;5.78;2.10;;;;;;;17.69;100.00;100715.06;1280390;23;20033;-47
2023/07/12 02:35:06;;;;;;;7.05;2.22;;;;;;;17.74;100.00;100704.28;1283963;23;20096;-47
2023/07/12 02:35:40;;;;;;;3.70;1.73;;;;;;;17.72;100.00;100682.19;1287140;23;20124;-50